createdAt,value
2023-04-17T00:01:20.756Z,100968.38
2023-04-17T00:03:57.271Z,100966.63
2023-04-17T00:06:27.024Z,100970.03
2023-04-17T00:09:03.584Z,100968.19
2023-04-17T00:11:38.055Z,100962.06
2023-04-17T00:14:07.820Z,100966.28
2023-04-17T00:16:37.046Z,100959.28
2023-04-17T00:19:06.347Z,100960.06
2023-04-17T00:21:35.945Z,100964.34
2023-04-17T00:24:07.709Z,100959.16
2023-04-17T00:26:37.133Z,100960.78
2023-04-17T00:29:06.426Z,100963.34
2023-04-17T00:31:36.446Z,100967.63
2023-04-17T00:34:14.560Z,100965.88
2023-04-17T00:36:43.807Z,100963.22
2023-04-17T00:41:54.697Z,100960.56
2023-04-17T00:44:29.360Z,100957.97
2023-04-17T00:46:58.978Z,100953.53
2023-04-17T00:49:30.608Z,100961.88
2023-04-17T00:52:01.109Z,100965.03
2023-04-17T00:54:37.668Z,100962.88
2023-04-17T00:57:07.646Z,100968.75
2023-04-17T00:59:38.283Z,100963.44
2023-04-17T01:02:13.348Z,100958.03
2023-04-17T01:04:42.773Z,100957.03
2023-04-17T01:07:12.020Z,100958.72
2023-04-17T01:09:43.437Z,100956.16
2023-04-17T01:12:20.997Z,100948.28
2023-04-17T01:14:52.273Z,100962.94
2023-04-17T01:17:22.116Z,100950.88
2023-04-17T01:19:52.452Z,100947.28
2023-04-17T01:22:33.374Z,100961.09
2023-04-17T01:25:04.888Z,100959.31
2023-04-17T01:27:38.224Z,100959.34
2023-04-17T01:30:08.920Z,100954.28
2023-04-17T01:32:45.391Z,100957.72
2023-04-17T01:35:19.787Z,100963.63
2023-04-17T01:37:49.196Z,100960.13
2023-04-17T01:40:26.426Z,100973.00
2023-04-17T01:43:00.726Z,100969.50
2023-04-17T01:45:35.611Z,100966.94
2023-04-17T01:48:05.158Z,100962.50
2023-04-17T01:50:34.259Z,100952.28
2023-04-17T01:53:03.522Z,100959.97
2023-04-17T01:55:34.721Z,100952.19
2023-04-17T01:58:04.538Z,100953.88
2023-04-17T02:00:38.846Z,100959.75
2023-04-17T02:03:08.444Z,100961.38
2023-04-17T02:05:37.763Z,100963.91
2023-04-17T02:08:08.496Z,100965.47
2023-04-17T02:10:46.416Z,100960.34
2023-04-17T02:13:15.778Z,100962.00
2023-04-17T02:15:47.296Z,100961.94
2023-04-17T02:18:42.839Z,100930.53
2023-04-17T02:21:12.072Z,100957.38
2023-04-17T02:23:41.472Z,100963.25
2023-04-17T02:26:12.932Z,100956.19
2023-04-17T02:28:42.235Z,100953.59
2023-04-17T02:31:13.389Z,100953.63
2023-04-17T02:33:42.950Z,100955.47
2023-04-17T02:36:13.284Z,100951.31
2023-04-17T02:41:22.643Z,100952.72
2023-04-17T02:43:52.069Z,100927.78
2023-04-17T02:46:21.404Z,100951.72
2023-04-17T02:48:50.997Z,100954.53
2023-04-17T02:51:23.378Z,100956.53
2023-04-17T02:53:52.955Z,100954.22
2023-04-17T02:56:24.279Z,100934.38
2023-04-17T02:58:54.193Z,100952.06
2023-04-17T03:01:23.849Z,100951.53
2023-04-17T03:03:53.526Z,100909.19
2023-04-17T03:06:23.710Z,100946.13
2023-04-17T03:08:53.126Z,100952.50
2023-04-17T03:11:29.549Z,100962.34
2023-04-17T03:13:59.057Z,100948.94
2023-04-17T03:16:28.748Z,100948.50
2023-04-17T03:19:02.889Z,100949.63
2023-04-17T03:21:37.403Z,100933.38
2023-04-17T03:24:07.624Z,100950.84
2023-04-17T03:26:39.632Z,100949.22
2023-04-17T03:29:15.429Z,100957.84
2023-04-17T03:31:44.758Z,100949.22
2023-04-17T03:34:14.946Z,100946.44
2023-04-17T03:36:50.642Z,100961.13
2023-04-17T03:39:20.299Z,100962.00
2023-04-17T03:41:51.929Z,100958.63
2023-04-17T03:44:21.531Z,100964.03
2023-04-17T03:46:50.756Z,100964.41
2023-04-17T03:49:26.586Z,100968.00
2023-04-17T03:51:57.132Z,100955.97
2023-04-17T03:54:32.151Z,100961.31
2023-04-17T03:57:04.236Z,100972.69
2023-04-17T03:59:41.373Z,100980.63
2023-04-17T04:02:10.939Z,100928.69
2023-04-17T04:04:41.060Z,100977.09
2023-04-17T04:07:21.882Z,100983.38
2023-04-17T04:09:52.577Z,100973.72
2023-04-17T04:12:24.351Z,100977.25
2023-04-17T04:14:53.828Z,100982.66
2023-04-17T04:17:23.196Z,100975.00
2023-04-17T04:19:52.751Z,100976.81
2023-04-17T04:22:23.166Z,100966.66
2023-04-17T04:25:00.537Z,100965.97
2023-04-17T04:27:45.249Z,100976.47
2023-04-17T04:30:16.406Z,100969.63
2023-04-17T04:33:06.420Z,100959.31
2023-04-17T04:35:47.373Z,100971.69
2023-04-17T04:38:17.398Z,100974.53
2023-04-17T04:40:56.838Z,100971.34
2023-04-17T04:43:28.229Z,100981.09
2023-04-17T04:46:03.777Z,100976.91
2023-04-17T04:48:36.690Z,100981.28
2023-04-17T04:51:06.194Z,100978.69
2023-04-17T04:53:36.622Z,100970.06
2023-04-17T04:56:07.689Z,100967.47
2023-04-17T04:58:40.319Z,100950.22
2023-04-17T05:01:10.327Z,100973.56
2023-04-17T05:03:47.363Z,100964.03
2023-04-17T05:06:30.947Z,100979.59
2023-04-17T05:09:04.145Z,100979.56
2023-04-17T05:11:39.149Z,100975.25
2023-04-17T05:14:11.922Z,100968.38
2023-04-17T05:16:54.989Z,100974.41
2023-04-17T05:19:25.527Z,100976.16
2023-04-17T05:24:54.930Z,100970.06
2023-04-17T05:27:26.457Z,100978.72
2023-04-17T05:30:15.886Z,100977.00
2023-04-17T05:32:48.731Z,100987.41
2023-04-17T05:35:47.626Z,100977.03
2023-04-17T05:38:23.917Z,100974.44
2023-04-17T05:40:55.034Z,100976.19
2023-04-17T05:43:24.475Z,100974.47
2023-04-17T05:45:59.026Z,100965.81
2023-04-17T05:48:34.471Z,100976.13
2023-04-17T05:51:06.534Z,100975.22
2023-04-17T05:53:36.016Z,100934.50
2023-04-17T05:56:06.508Z,100975.00
2023-04-17T05:58:37.526Z,100967.03
2023-04-17T06:01:12.992Z,100973.06
2023-04-17T06:03:48.877Z,100968.69
2023-04-17T06:06:23.932Z,100971.38
2023-04-17T06:08:54.684Z,100970.56
2023-04-17T06:11:26.258Z,100973.19
2023-04-17T06:13:59.182Z,100965.31
2023-04-17T06:16:31.621Z,100975.38
2023-04-17T06:19:01.068Z,100949.94
2023-04-17T06:21:31.198Z,100974.81
2023-04-17T06:24:02.664Z,100982.31
2023-04-17T06:26:36.965Z,100976.44
2023-04-17T06:29:17.944Z,100979.06
2023-04-17T06:31:54.603Z,100976.56
2023-04-17T06:34:25.263Z,100977.28
2023-04-17T06:36:57.265Z,100985.00
2023-04-17T06:39:27.105Z,100960.88
2023-04-17T06:41:58.936Z,100978.16
2023-04-17T06:44:31.226Z,100981.56
2023-04-17T06:47:10.812Z,100979.75
2023-04-17T06:49:40.411Z,100978.88
2023-04-17T06:52:14.714Z,100981.50
2023-04-17T06:54:44.154Z,100978.94
2023-04-17T06:57:13.600Z,100991.16
2023-04-17T06:59:49.075Z,100986.84
2023-04-17T07:02:20.748Z,100984.19
2023-04-17T07:04:50.407Z,100986.03
2023-04-17T07:07:19.904Z,100986.91
2023-04-17T07:09:49.267Z,100986.88
2023-04-17T07:12:18.561Z,100986.75
2023-04-17T07:14:47.867Z,100983.00
2023-04-17T07:17:17.621Z,100986.88
2023-04-17T07:19:49.189Z,100985.78
2023-04-17T07:22:18.457Z,100973.47
2023-04-17T07:24:53.864Z,100982.63
2023-04-17T07:27:23.166Z,100980.59
2023-04-17T07:29:54.387Z,100981.22
2023-04-17T07:32:24.386Z,100980.81
2023-04-17T07:34:57.087Z,100974.53
2023-04-17T07:37:32.496Z,100976.03
2023-04-17T07:40:01.906Z,100971.66
2023-04-17T07:42:33.338Z,100968.47
2023-04-17T07:45:03.115Z,100975.09
2023-04-17T07:47:46.019Z,100973.91
2023-04-17T07:50:17.572Z,100976.88
2023-04-17T07:52:46.968Z,100977.16
2023-04-17T07:55:16.399Z,100980.88
2023-04-17T07:57:52.812Z,100974.38
2023-04-17T08:00:23.673Z,100990.47
2023-04-17T08:02:58.151Z,100980.41
2023-04-17T08:05:31.061Z,100988.56
2023-04-17T08:08:07.279Z,100983.47
2023-04-17T08:10:37.006Z,100977.41
2023-04-17T08:13:06.277Z,100976.03
2023-04-17T08:15:39.614Z,100985.72
2023-04-17T08:18:09.326Z,100973.91
2023-04-17T08:20:41.144Z,100983.78
2023-04-17T08:23:10.641Z,100984.06
2023-04-17T08:25:39.936Z,100964.41
2023-04-17T08:28:19.871Z,100978.31
2023-04-17T08:30:54.293Z,100970.56
2023-04-17T08:33:23.616Z,100976.72
2023-04-17T08:35:55.198Z,100967.16
2023-04-17T08:38:30.930Z,100981.03
2023-04-17T08:41:05.327Z,100980.19
2023-04-17T08:46:12.931Z,100967.09
2023-04-17T08:48:42.420Z,100972.31
2023-04-17T08:51:13.760Z,100973.16
2023-04-17T08:53:43.079Z,100953.16
2023-04-17T08:56:12.215Z,100954.03
2023-04-17T08:58:46.826Z,100967.78
2023-04-17T09:01:18.669Z,100960.72
2023-04-17T09:03:48.864Z,100969.19
2023-04-17T09:06:20.803Z,100963.88
2023-04-17T09:09:00.517Z,100963.56
2023-04-17T09:11:30.318Z,100957.16
2023-04-17T09:14:00.981Z,100959.34
2023-04-17T09:16:30.265Z,100947.47
2023-04-17T09:19:13.667Z,100953.72
2023-04-17T09:21:45.315Z,100941.75
2023-04-17T09:24:14.667Z,100942.84
2023-04-17T09:26:43.835Z,100923.91
2023-04-17T09:29:14.253Z,100943.09
2023-04-17T09:31:45.862Z,100935.41
2023-04-17T09:34:16.157Z,100940.94
2023-04-17T09:36:51.137Z,100947.25
2023-04-17T09:39:24.068Z,100928.34
2023-04-17T09:42:05.813Z,100932.00
2023-04-17T09:44:41.965Z,100938.56
2023-04-17T09:47:14.271Z,100941.88
2023-04-17T09:49:49.454Z,100935.66
2023-04-17T09:52:23.169Z,100929.19
2023-04-17T09:54:53.355Z,100925.03
2023-04-17T09:57:36.705Z,100932.69
2023-04-17T10:00:14.520Z,100919.56
2023-04-17T10:02:44.859Z,100923.50
2023-04-17T10:05:20.131Z,100925.00
2023-04-17T10:07:51.638Z,100918.56
2023-04-17T10:10:25.382Z,100920.69
2023-04-17T10:15:41.373Z,100913.19
2023-04-17T10:18:25.088Z,100909.25
2023-04-17T10:20:55.525Z,100914.59
2023-04-17T10:23:31.816Z,100914.31
2023-04-17T10:26:30.975Z,100917.34
2023-04-17T10:29:00.258Z,100909.94
2023-04-17T10:32:11.628Z,100894.28
2023-04-17T10:34:46.439Z,100902.28
2023-04-17T10:37:17.064Z,100901.09
2023-04-17T10:40:06.175Z,100915.75
2023-04-17T10:42:35.724Z,100899.44
2023-04-17T10:45:05.704Z,100909.91
2023-04-17T10:47:38.618Z,100903.91
2023-04-17T10:50:11.543Z,100900.28
2023-04-17T10:52:46.624Z,100903.97
2023-04-17T10:55:22.713Z,100887.47
2023-04-17T10:58:01.880Z,100893.34
2023-04-17T11:00:36.848Z,100900.81
2023-04-17T11:03:08.737Z,100899.28
2023-04-17T11:05:46.532Z,100899.50
2023-04-17T11:08:23.369Z,100885.94
2023-04-17T11:10:58.145Z,100892.28
2023-04-17T11:13:38.196Z,100894.91
2023-04-17T11:16:07.794Z,100882.78
2023-04-17T11:18:37.087Z,100893.56
2023-04-17T11:21:07.058Z,100897.88
2023-04-17T11:23:49.308Z,100883.50
2023-04-17T11:26:30.767Z,100878.75
2023-04-17T11:29:01.665Z,100885.13
2023-04-17T11:31:34.355Z,100876.09
2023-04-17T11:34:10.897Z,100863.41
2023-04-17T11:36:40.314Z,100866.41
2023-04-17T11:39:10.109Z,100877.44
2023-04-17T11:41:47.689Z,100844.56
2023-04-17T11:44:19.760Z,100854.66
2023-04-17T11:46:52.934Z,100865.06
2023-04-17T11:49:39.972Z,100851.16
2023-04-17T11:52:10.357Z,100863.41
2023-04-17T11:54:40.875Z,100855.81
2023-04-17T11:57:18.014Z,100862.81
2023-04-17T11:59:47.363Z,100864.28
2023-04-17T12:02:17.106Z,100865.56
2023-04-17T12:04:51.665Z,100867.38
2023-04-17T12:07:31.886Z,100865.44
2023-04-17T12:10:01.232Z,100865.97
2023-04-17T12:12:34.145Z,100858.31
2023-04-17T12:15:10.094Z,100849.84
2023-04-17T12:17:50.899Z,100857.81
2023-04-17T12:20:20.597Z,100851.06
2023-04-17T12:22:49.765Z,100863.88
2023-04-17T12:25:19.015Z,100853.47
2023-04-17T12:27:50.963Z,100846.69
2023-04-17T12:30:20.626Z,100853.03
2023-04-17T12:32:51.913Z,100836.69
2023-04-17T12:35:22.115Z,100828.59
2023-04-17T12:37:53.411Z,100839.03
2023-04-17T12:40:25.124Z,100843.84
2023-04-17T12:43:01.651Z,100839.38
2023-04-17T12:52:10.125Z,100836.59
2023-04-17T12:54:52.387Z,100837.38
2023-04-17T12:57:21.721Z,100836.47
2023-04-17T12:59:50.984Z,100839.59
2023-04-17T13:02:20.873Z,100827.88
2023-04-17T13:04:53.569Z,100837.84
2023-04-17T13:07:38.520Z,100813.13
2023-04-17T13:10:09.552Z,100829.66
2023-04-17T13:12:44.752Z,100825.31
2023-04-17T13:15:33.910Z,100832.41
2023-04-17T13:18:03.414Z,100819.06
2023-04-17T13:23:14.481Z,100826.50
2023-04-17T13:25:49.022Z,100821.00
2023-04-17T13:28:18.539Z,100825.81
2023-04-17T13:30:48.156Z,100820.78
2023-04-17T13:33:22.699Z,100818.25
2023-04-17T13:35:53.488Z,100828.72
2023-04-17T13:38:30.407Z,100823.63
2023-04-17T13:41:04.912Z,100834.00
2023-04-17T13:43:34.261Z,100819.81
2023-04-17T13:46:04.227Z,100828.16
2023-04-17T13:48:33.624Z,100826.09
2023-04-17T13:51:22.751Z,100809.50
2023-04-17T13:53:54.160Z,100820.19
2023-04-17T13:56:29.852Z,100814.00
2023-04-17T13:59:00.231Z,100813.38
2023-04-17T14:01:34.563Z,100811.75
2023-04-17T14:04:04.133Z,100807.00
2023-04-17T14:06:40.173Z,100789.84
2023-04-17T14:09:11.964Z,100806.25
2023-04-17T14:11:41.421Z,100820.41
2023-04-17T14:14:12.268Z,100808.44
2023-04-17T14:16:50.703Z,100824.38
2023-04-17T14:19:35.127Z,100820.66
2023-04-17T14:22:04.640Z,100815.44
2023-04-17T14:24:35.907Z,100818.41
2023-04-17T14:27:10.266Z,100822.44
2023-04-17T14:29:39.520Z,100819.47
2023-04-17T14:32:08.669Z,100816.31
2023-04-17T14:34:38.166Z,100807.97
2023-04-17T14:37:07.681Z,100815.75
2023-04-17T14:39:39.395Z,100821.91
2023-04-17T14:42:10.085Z,100829.75
2023-04-17T14:44:44.454Z,100821.06
2023-04-17T14:47:14.641Z,100821.03
2023-04-17T14:52:20.118Z,100828.91
2023-04-17T14:54:51.394Z,100827.13
2023-04-17T14:57:44.007Z,100830.59
2023-04-17T15:00:14.303Z,100824.66
2023-04-17T15:02:43.770Z,100825.56
2023-04-17T15:07:56.475Z,100819.66
2023-04-17T15:10:44.113Z,100826.66
2023-04-17T15:13:22.604Z,100821.44
2023-04-17T15:15:56.898Z,100830.22
2023-04-17T15:18:41.135Z,100829.47
2023-04-17T15:21:10.797Z,100827.84
2023-04-17T15:23:40.692Z,100825.34
2023-04-17T15:26:12.307Z,100820.13
2023-04-17T15:28:42.152Z,100822.84
2023-04-17T15:31:11.458Z,100820.28
2023-04-17T15:33:41.051Z,100825.50
2023-04-17T15:36:20.526Z,100830.69
2023-04-17T15:38:49.789Z,100828.09
2023-04-17T15:41:21.289Z,100820.34
2023-04-17T15:43:53.034Z,100817.75
2023-04-17T15:46:22.329Z,100820.41
2023-04-17T15:49:08.335Z,100819.59
2023-04-17T15:51:46.254Z,100820.50
2023-04-17T15:54:16.099Z,100816.19
2023-04-17T15:56:47.263Z,100818.81
2023-04-17T15:59:17.025Z,100805.94
2023-04-17T16:01:47.811Z,100814.59
2023-04-17T16:04:23.439Z,100820.66
2023-04-17T16:06:53.286Z,100824.19
2023-04-17T16:09:24.056Z,100822.50
2023-04-17T16:11:56.236Z,100823.44
2023-04-17T16:14:32.205Z,100821.72
2023-04-17T16:17:01.713Z,100817.47
2023-04-17T16:19:31.059Z,100815.75
2023-04-17T16:22:00.867Z,100820.09
2023-04-17T16:24:30.066Z,100806.31
2023-04-17T16:27:02.622Z,100801.16
2023-04-17T16:29:37.205Z,100804.69
2023-04-17T16:32:11.439Z,100816.75
2023-04-17T16:34:59.374Z,100816.75
2023-04-17T16:37:28.690Z,100816.78
2023-04-17T16:40:03.706Z,100827.19
2023-04-17T16:42:40.139Z,100824.59
2023-04-17T16:45:10.159Z,100825.47
2023-04-17T16:47:40.211Z,100827.22
2023-04-17T16:50:11.808Z,100828.94
2023-04-17T16:52:59.705Z,100824.66
2023-04-17T16:55:47.833Z,100825.53
2023-04-17T16:58:19.444Z,100809.13
2023-04-17T17:00:48.860Z,100806.56
2023-04-17T17:03:18.442Z,100829.00
2023-04-17T17:05:47.888Z,100833.38
2023-04-17T17:08:17.526Z,100828.19
2023-04-17T17:10:51.989Z,100838.56
2023-04-17T17:13:23.696Z,100838.56
2023-04-17T17:15:57.888Z,100838.53
2023-04-17T17:18:41.314Z,100836.81
2023-04-17T17:21:10.665Z,100829.91
2023-04-17T17:23:40.340Z,100835.09
2023-04-17T17:26:10.303Z,100841.16
2023-04-17T17:28:41.584Z,100844.63
2023-04-17T17:31:10.969Z,100843.78
2023-04-17T17:33:40.314Z,100839.47
2023-04-17T17:36:15.868Z,100839.47
2023-04-17T17:38:45.334Z,100842.06
2023-04-17T17:41:14.812Z,100843.81
2023-04-17T17:43:46.237Z,100844.69
2023-04-17T17:46:15.498Z,100839.47
2023-04-17T17:48:59.723Z,100849.84
2023-04-17T17:51:29.366Z,100842.97
2023-04-17T17:53:58.569Z,100832.59
2023-04-17T17:56:28.195Z,100844.72
2023-04-17T17:59:14.246Z,100844.72
2023-04-17T18:04:23.781Z,100839.53
2023-04-17T18:06:59.837Z,100823.09
2023-04-17T18:09:29.378Z,100844.72
2023-04-17T18:11:58.804Z,100837.81
2023-04-17T18:14:30.015Z,100830.88
2023-04-17T18:16:59.246Z,100843.88
2023-04-17T18:19:29.516Z,100845.59
2023-04-17T18:22:05.287Z,100834.34
2023-04-17T18:24:39.550Z,100836.94
2023-04-17T18:27:09.151Z,100831.78
2023-04-17T18:29:40.626Z,100833.50
2023-04-17T18:32:15.098Z,100830.91
2023-04-17T18:34:45.726Z,100831.78
2023-04-17T18:37:20.169Z,100826.59
2023-04-17T18:39:49.361Z,100816.22
2023-04-17T18:42:18.602Z,100818.78
2023-04-17T18:44:54.969Z,100821.38
2023-04-17T18:47:24.388Z,100817.09
2023-04-17T18:49:54.166Z,100815.38
2023-04-17T18:52:23.646Z,100806.72
2023-04-17T18:54:52.975Z,100813.63
2023-04-17T18:57:37.382Z,100803.28
2023-04-17T19:00:12.737Z,100802.41
2023-04-17T19:02:47.509Z,100803.28
2023-04-17T19:05:16.939Z,100801.53
2023-04-17T19:07:47.480Z,100799.81
2023-04-17T19:10:21.883Z,100799.78
2023-04-17T19:12:51.238Z,100804.09
2023-04-17T19:15:27.572Z,100808.38
2023-04-17T19:17:56.934Z,100798.88
2023-04-17T19:20:26.154Z,100798.00
2023-04-17T19:22:56.751Z,100793.69
2023-04-17T19:25:31.270Z,100792.00
2023-04-17T19:28:00.421Z,100792.00
2023-04-17T19:30:36.811Z,100791.13
2023-04-17T19:33:06.898Z,100792.84
2023-04-17T19:35:41.235Z,100790.28
2023-04-17T19:38:10.619Z,100792.03
2023-04-17T19:41:16.988Z,100786.84
2023-04-17T19:43:46.709Z,100786.00
2023-04-17T19:46:19.086Z,100785.13
2023-04-17T19:48:50.414Z,100786.84
2023-04-17T19:51:20.031Z,100785.13
2023-04-17T19:53:49.380Z,100786.84
2023-04-17T19:56:20.714Z,100786.00
2023-04-17T19:58:50.065Z,100782.53
2023-04-17T20:04:01.590Z,100786.84
2023-04-17T20:06:31.415Z,100787.72
2023-04-17T20:09:07.218Z,100775.63
2023-04-17T20:14:19.349Z,100786.84
2023-04-17T20:16:50.932Z,100787.72
2023-04-17T20:19:20.351Z,100778.19
2023-04-17T20:21:49.654Z,100790.28
2023-04-17T20:24:19.015Z,100792.03
2023-04-17T20:26:48.382Z,100779.94
2023-04-17T20:29:17.671Z,100761.78
2023-04-17T20:31:46.937Z,100781.66
2023-04-17T20:34:23.591Z,100780.81
2023-04-17T20:36:53.012Z,100779.06
2023-04-17T20:39:22.295Z,100774.75
2023-04-17T20:41:51.722Z,100758.34
2023-04-17T20:44:21.811Z,100775.63
2023-04-17T20:46:56.881Z,100774.75
2023-04-17T20:49:28.265Z,100772.16
2023-04-17T20:51:57.760Z,100777.34
2023-04-17T20:54:27.004Z,100776.50
2023-04-17T20:56:56.663Z,100776.50
2023-04-17T20:59:25.783Z,100769.56
2023-04-17T21:01:55.157Z,100773.91
2023-04-17T21:04:31.496Z,100772.16
2023-04-17T21:07:01.496Z,100775.63
2023-04-17T21:09:30.826Z,100773.88
2023-04-17T21:12:01.270Z,100770.44
2023-04-17T21:14:33.149Z,100777.38
2023-04-17T21:17:02.082Z,100782.53
2023-04-17T21:19:36.697Z,100782.56
2023-04-17T21:22:12.961Z,100778.22
2023-04-17T21:24:42.408Z,100775.59
2023-04-17T21:27:11.722Z,100774.75
2023-04-17T21:29:40.910Z,100762.66
2023-04-17T21:32:10.239Z,100776.47
2023-04-17T21:34:41.424Z,100770.44
2023-04-17T21:37:10.778Z,100752.25
2023-04-17T21:39:40.021Z,100770.44
2023-04-17T21:42:09.675Z,100769.53
2023-04-17T21:44:38.988Z,100771.28
2023-04-17T21:47:09.450Z,100770.41
2023-04-17T21:49:40.642Z,100763.50
2023-04-17T21:52:10.061Z,100768.69
2023-04-17T21:54:39.281Z,100764.34
2023-04-17T21:57:13.552Z,100766.09
2023-04-17T21:59:42.939Z,100767.78
2023-04-17T22:02:12.602Z,100757.44
2023-04-17T22:04:49.051Z,100766.09
2023-04-17T22:07:20.986Z,100760.03
2023-04-17T22:09:50.383Z,100765.19
2023-04-17T22:12:29.727Z,100763.50
2023-04-17T22:14:59.040Z,100752.25
2023-04-17T22:17:28.238Z,100764.34
2023-04-17T22:20:04.505Z,100767.78
2023-04-17T22:22:34.012Z,100758.31
2023-04-17T22:25:03.305Z,100770.38
2023-04-17T22:27:34.514Z,100759.19
2023-04-17T22:30:03.848Z,100760.06
2023-04-17T22:32:36.497Z,100760.06
2023-04-17T22:35:09.318Z,100752.28
2023-04-17T22:37:43.656Z,100751.41
2023-04-17T22:40:14.459Z,100759.19
2023-04-17T22:45:19.692Z,100758.31
2023-04-17T22:47:48.962Z,100749.69
2023-04-17T22:50:21.823Z,100756.59
2023-04-17T22:52:56.179Z,100741.06
2023-04-17T22:55:30.504Z,100755.75
2023-04-17T22:57:59.664Z,100750.56
2023-04-17T23:00:28.961Z,100751.41
2023-04-17T23:03:03.390Z,100734.16
2023-04-17T23:05:34.820Z,100747.97
2023-04-17T23:08:04.201Z,100738.50
2023-04-17T23:10:33.504Z,100747.13
2023-04-17T23:13:02.938Z,100740.19
2023-04-17T23:15:39.403Z,100745.38
2023-04-17T23:18:08.757Z,100738.47
2023-04-17T23:20:45.070Z,100736.75
2023-04-17T23:23:15.938Z,100726.41
2023-04-17T23:25:45.462Z,100723.81
2023-04-17T23:28:19.682Z,100731.56
2023-04-17T23:30:49.086Z,100720.34
2023-04-17T23:33:18.481Z,100723.81
2023-04-17T23:35:49.684Z,100716.03
2023-04-17T23:38:24.136Z,100722.91
2023-04-17T23:41:03.686Z,100721.22
2023-04-17T23:43:33.044Z,100721.22
2023-04-17T23:46:02.356Z,100715.19
2023-04-17T23:48:31.721Z,100709.13
2023-04-17T23:51:08.602Z,100707.38
2023-04-17T23:53:38.016Z,100687.53
2023-04-17T23:56:07.786Z,100709.13
2023-04-17T23:58:37.066Z,100706.53
